»·PEaware :: N241BJ KORF-KDCA

N241BJ :: KORF-KDCA

FLIGHT INFORMATION

Flight Status: Arrived
Operator: Privately registered:
United States
More flights under this callsign
Pilot: Anonymous 14085 (14085)
Aircraft: AIRBUS A330-200
(A332)
More flights by this aircraft type
Origin: KORF Norfolk Intl
United States
Destination: KDCA Ronald Reagan Washington Natl
United States
More flights between these airports :: More routes between these airports
Route:
File this flight plan on PilotEdge
Remarks:
Altitude:
(Current/Filed)
15,000ft
Speed:
(Current/Filed)
480kts
Departed: 12-May-17 11:26 PM
Arrived: 12-May-17 11:54 PM
Distance/Time
Traveled:
124nm/0:28
Distance/Time
To Go:
Arrived

Flight Plot

Page will automatically refresh every two minutes.

Flight plan parsing failed; only flown route is shown


Map Options




Map Legend


Flown Route
Filed Route
Departure Airport
Arrival Airport
Navaid (VOR, NDB)
Fix

Horizontal Profiles

Position Reports

Time Latitude Longitude Heading Altitude Ground
Speed
12-May-17 23:15 36.886969 -76.200750 0 37ft 0kts
12-May-17 23:16 36.886969 -76.200750 0 37ft 0kts
12-May-17 23:17 36.886969 -76.200750 0 37ft 0kts
12-May-17 23:18 36.886969 -76.200750 0 37ft 0kts
12-May-17 23:19 36.886969 -76.200750 0 37ft 0kts
12-May-17 23:20 36.886969 -76.200750 0 37ft 0kts
12-May-17 23:21 36.886969 -76.200750 0 37ft 0kts
12-May-17 23:22 36.886969 -76.200750 359 37ft 0kts
12-May-17 23:23 36.886969 -76.200750 0 37ft 0kts
12-May-17 23:24 36.886982 -76.200750 0 37ft 1kts
12-May-17 23:25 36.888132 -76.200967 292 37ft 3kts
12-May-17 23:26 36.888057 -76.204223 219 37ft 17kts
12-May-17 23:27 36.885725 -76.207698 308 37ft 11kts
12-May-17 23:28 36.898081 -76.196540 37 40ft 153kts
12-May-17 23:29 36.932889 -76.186946 323 2041ft 164kts
12-May-17 23:30 36.987355 -76.225029 330 3655ft 258kts
12-May-17 23:31 37.048525 -76.273361 339 6905ft 277kts
12-May-17 23:32 37.119069 -76.307996 342 9782ft 300kts
12-May-17 23:33 37.206200 -76.346829 339 11195ft 380kts
12-May-17 23:34 37.308207 -76.391889 337 14422ft 397kts
12-May-17 23:35 37.410848 -76.437339 337 15023ft 396kts
12-May-17 23:36 37.513865 -76.483061 337 15023ft 396kts
12-May-17 23:37 37.616945 -76.528941 337 15024ft 396kts
12-May-17 23:38 37.720025 -76.574948 337 14891ft 394kts
12-May-17 23:39 37.823047 -76.621081 337 14905ft 395kts
12-May-17 23:40 37.918411 -76.663966 336 14927ft 395kts
12-May-17 23:41 38.019304 -76.709475 336 14935ft 395kts
12-May-17 23:42 38.119960 -76.754905 336 14647ft 385kts
12-May-17 23:43 38.219383 -76.799885 336 13664ft 379kts
12-May-17 23:44 38.317005 -76.844222 337 12669ft 375kts
12-May-17 23:45 38.413463 -76.888157 337 11415ft 369kts
12-May-17 23:46 38.506861 -76.930803 337 9952ft 343kts
12-May-17 23:47 38.591921 -76.969759 338 8539ft 312kts
12-May-17 23:48 38.669642 -77.005446 338 7217ft 289kts
12-May-17 23:49 38.742441 -77.038947 338 5978ft 272kts
12-May-17 23:50 38.811237 -77.070666 339 4802ft 258kts
12-May-17 23:51 38.876312 -77.100733 339 3685ft 246kts
12-May-17 23:52 38.938655 -77.129043 350 2579ft 237kts
12-May-17 23:53 38.951948 -77.085657 166 2076ft 195kts
12-May-17 23:54 38.902490 -77.081855 151 1649ft 157kts
12-May-17 23:55 38.875452 -77.042161 148 341ft 152kts
12-May-17 23:56 38.849117 -77.037833 222 27ft 5kts
12-May-17 23:57 38.848803 -77.038811 290 27ft 1kts
12-May-17 23:58 38.849695 -77.038976 355 27ft 3kts
12-May-17 23:59 38.852641 -77.039272 355 27ft 20kts
13-May-17 00:00 38.855513 -77.039580 355 27ft 0kts
13-May-17 00:01 38.855513 -77.039580 355 27ft 0kts
13-May-17 00:02 38.855513 -77.039580 355 27ft 0kts
13-May-17 00:03 38.855513 -77.039580 355 27ft 0kts
13-May-17 00:04 38.855513 -77.039580 355 27ft 0kts
13-May-17 00:05 38.855513 -77.039580 355 27ft 0kts
13-May-17 00:06 38.855513 -77.039580 355 27ft 0kts
13-May-17 00:07 38.855513 -77.039580 355 27ft 0kts
13-May-17 00:08 38.855513 -77.039580 355 27ft 0kts
13-May-17 00:09 38.855513 -77.039580 355 27ft 0kts
13-May-17 00:10 38.855513 -77.039580 355 27ft 0kts

Navigation Log

Ident Type
Flight plan parsing failed, navigation log unavailable